createdAt,value
2018-07-04T00:00:08.634Z,31.51
2018-07-04T00:02:48.122Z,31.09
2018-07-04T00:05:27.757Z,31.34
2018-07-04T00:08:07.275Z,31.80
2018-07-04T00:10:47.112Z,31.68
2018-07-04T00:13:26.718Z,32.04
2018-07-04T00:16:06.571Z,32.78
2018-07-04T00:18:47.092Z,32.78
2018-07-04T00:21:26.591Z,32.04
2018-07-04T00:24:06.096Z,32.48
2018-07-04T00:26:46.660Z,32.65
2018-07-04T00:29:26.069Z,32.32
2018-07-04T00:32:05.733Z,33.31
2018-07-04T00:34:45.166Z,33.98
2018-07-04T00:37:24.610Z,34.17
2018-07-04T00:40:04.105Z,34.65
2018-07-04T00:42:43.521Z,34.42
2018-07-04T00:45:23.136Z,34.33
2018-07-04T00:48:02.530Z,34.42
2018-07-04T00:50:45.348Z,34.59
2018-07-04T00:53:24.916Z,35.10
2018-07-04T00:56:04.556Z,36.25
2018-07-04T00:58:44.109Z,37.10
2018-07-04T01:01:23.341Z,37.16
2018-07-04T01:04:02.771Z,36.10
2018-07-04T01:06:42.278Z,36.61
2018-07-04T01:09:21.848Z,35.28
2018-07-04T01:12:01.288Z,34.87
2018-07-04T01:14:40.677Z,35.94
2018-07-04T01:17:20.051Z,36.13
2018-07-04T01:19:59.380Z,34.73
2018-07-04T01:22:38.829Z,34.95
2018-07-04T01:25:18.116Z,36.25
2018-07-04T01:27:57.609Z,35.72
2018-07-04T01:30:37.189Z,34.08
2018-07-04T01:33:16.721Z,34.13
2018-07-04T01:35:56.211Z,33.49
2018-07-04T01:38:35.696Z,33.53
2018-07-04T01:41:15.211Z,35.20
2018-07-04T01:43:54.783Z,35.18
2018-07-04T01:46:34.185Z,35.26
2018-07-04T01:49:13.770Z,36.75
2018-07-04T01:51:53.415Z,36.78
2018-07-04T01:54:32.828Z,36.97
2018-07-04T01:57:12.123Z,37.17
2018-07-04T01:59:51.519Z,36.49
2018-07-04T02:02:30.907Z,36.50
2018-07-04T02:05:10.404Z,35.95
2018-07-04T02:07:49.894Z,36.74
2018-07-04T02:10:29.243Z,35.98
2018-07-04T02:13:08.685Z,35.44
2018-07-04T02:15:48.166Z,35.21
2018-07-04T02:18:27.718Z,37.77
2018-07-04T02:21:07.271Z,37.62
2018-07-04T02:23:46.674Z,38.97
2018-07-04T02:26:26.023Z,38.10
2018-07-04T02:29:05.337Z,37.15
2018-07-04T02:31:44.766Z,36.35
2018-07-04T02:34:25.762Z,38.77
2018-07-04T02:37:07.034Z,37.83
2018-07-04T02:39:46.559Z,37.82
2018-07-04T02:42:25.983Z,38.80
2018-07-04T02:45:05.421Z,39.39
2018-07-04T02:47:44.910Z,39.40
2018-07-04T02:50:24.335Z,39.47
2018-07-04T02:53:03.870Z,39.26
2018-07-04T02:55:43.500Z,38.65
2018-07-04T02:58:23.046Z,39.27
2018-07-04T03:01:02.601Z,38.28
2018-07-04T03:03:42.221Z,38.65
2018-07-04T03:06:21.690Z,37.82
2018-07-04T03:09:01.202Z,38.36
2018-07-04T03:11:40.780Z,37.77
2018-07-04T03:14:20.381Z,38.58
2018-07-04T03:16:59.745Z,38.89
2018-07-04T03:19:39.300Z,38.42
2018-07-04T03:22:18.882Z,38.73
2018-07-04T03:24:58.261Z,39.92
2018-07-04T03:27:37.606Z,39.40
2018-07-04T03:30:17.090Z,39.45
2018-07-04T03:32:56.706Z,40.90
2018-07-04T03:35:36.258Z,40.31
2018-07-04T03:38:15.724Z,39.29
2018-07-04T03:40:55.167Z,38.95
2018-07-04T03:43:34.577Z,41.81
2018-07-04T03:46:13.970Z,40.15
2018-07-04T03:48:53.515Z,40.07
2018-07-04T03:51:33.009Z,39.82
2018-07-04T03:54:12.655Z,39.83
2018-07-04T03:56:52.330Z,39.81
2018-07-04T03:59:31.728Z,41.69
2018-07-04T04:02:11.178Z,41.12
2018-07-04T04:04:50.789Z,40.63
2018-07-04T04:07:30.355Z,40.89
2018-07-04T04:10:09.937Z,41.11
2018-07-04T04:12:49.438Z,38.84
2018-07-04T04:15:28.925Z,38.89
2018-07-04T04:18:08.338Z,39.76
2018-07-04T04:20:47.915Z,43.02
2018-07-04T04:23:27.390Z,41.49
2018-07-04T04:26:06.830Z,40.20
2018-07-04T04:28:46.253Z,40.48
2018-07-04T04:31:28.714Z,40.21
2018-07-04T04:34:08.223Z,39.25
2018-07-04T04:36:47.591Z,40.79
2018-07-04T04:39:27.052Z,39.62
2018-07-04T04:42:06.450Z,40.02
2018-07-04T04:44:45.814Z,41.52
2018-07-04T04:47:25.279Z,42.58
2018-07-04T04:50:04.736Z,42.23
2018-07-04T04:52:44.263Z,41.99
2018-07-04T04:55:23.807Z,41.10
2018-07-04T04:58:03.378Z,41.20
2018-07-04T05:00:42.897Z,42.00
2018-07-04T05:03:22.384Z,40.96
2018-07-04T05:06:02.060Z,41.84
2018-07-04T05:08:41.570Z,40.73
2018-07-04T05:11:21.357Z,42.05
2018-07-04T05:14:00.860Z,42.10
2018-07-04T05:16:40.391Z,41.54
2018-07-04T05:19:19.820Z,42.11
2018-07-04T05:21:59.215Z,42.63
2018-07-04T05:24:38.770Z,42.29
2018-07-04T05:27:18.452Z,42.31
2018-07-04T05:29:57.887Z,42.28
2018-07-04T05:32:37.443Z,42.05
2018-07-04T05:35:16.787Z,41.47
2018-07-04T05:37:56.206Z,41.40
2018-07-04T05:40:35.627Z,40.36
2018-07-04T05:43:15.196Z,39.59
2018-07-04T05:45:54.866Z,40.57
2018-07-04T05:48:34.317Z,40.59
2018-07-04T05:51:13.821Z,41.06
2018-07-04T05:53:53.270Z,40.16
2018-07-04T05:56:32.650Z,39.45
2018-07-04T05:59:13.003Z,40.56
2018-07-04T06:01:52.422Z,40.68
2018-07-04T06:04:31.838Z,40.53
2018-07-04T06:07:11.382Z,41.14
2018-07-04T06:09:50.934Z,41.16
2018-07-04T06:12:30.598Z,41.27
2018-07-04T06:15:10.120Z,40.36
2018-07-04T06:17:49.604Z,41.67
2018-07-04T06:20:29.001Z,42.17
2018-07-04T06:23:08.537Z,42.28
2018-07-04T06:25:47.938Z,41.97
2018-07-04T06:28:27.417Z,42.19
2018-07-04T06:31:06.822Z,42.10
2018-07-04T06:33:46.314Z,41.69
2018-07-04T06:36:25.806Z,41.43
2018-07-04T06:38:52.878Z,42.03
2018-07-04T06:41:19.937Z,41.69
2018-07-04T06:43:47.001Z,42.30
2018-07-04T06:46:14.061Z,42.45
2018-07-04T06:48:41.135Z,41.29
2018-07-04T06:51:08.209Z,41.97
2018-07-04T06:53:35.349Z,41.48
2018-07-04T06:56:02.406Z,41.22
2018-07-04T06:58:29.462Z,41.44
2018-07-04T07:00:56.537Z,41.27
2018-07-04T07:03:36.059Z,41.19
2018-07-04T07:06:15.743Z,40.97
2018-07-04T07:08:55.250Z,41.65
2018-07-04T07:11:34.486Z,42.35
2018-07-04T07:14:13.858Z,43.03
2018-07-04T07:16:53.320Z,43.13
2018-07-04T07:19:32.742Z,42.92
2018-07-04T07:22:12.270Z,43.17
2018-07-04T07:24:51.802Z,42.91
2018-07-04T07:27:31.315Z,42.56
2018-07-04T07:30:10.664Z,41.98
2018-07-04T07:32:50.205Z,41.15
2018-07-04T07:35:29.598Z,41.83
2018-07-04T07:38:09.134Z,41.76
2018-07-04T07:40:48.694Z,42.11
2018-07-04T07:43:28.224Z,41.64
2018-07-04T07:46:08.145Z,41.36
2018-07-04T07:48:47.601Z,40.70
2018-07-04T07:51:26.965Z,40.71
2018-07-04T07:54:06.549Z,42.39
2018-07-04T07:56:45.878Z,41.50
2018-07-04T07:59:25.385Z,41.55
2018-07-04T08:02:04.799Z,42.06
2018-07-04T08:04:44.243Z,42.16
2018-07-04T08:07:23.546Z,41.58
2018-07-04T08:10:03.074Z,39.61
2018-07-04T08:12:42.738Z,39.97
2018-07-04T08:15:22.182Z,39.45
2018-07-04T08:18:01.954Z,38.85
2018-07-04T08:20:41.413Z,39.17
2018-07-04T08:23:20.834Z,38.01
2018-07-04T08:26:00.239Z,39.36
2018-07-04T08:28:39.699Z,39.28
2018-07-04T08:31:19.207Z,38.78
2018-07-04T08:33:58.642Z,38.30
2018-07-04T08:36:38.072Z,38.74
2018-07-04T08:39:17.533Z,37.31
2018-07-04T08:41:57.018Z,37.21
2018-07-04T08:44:36.622Z,37.23
2018-07-04T08:47:16.154Z,37.57
2018-07-04T08:49:55.576Z,36.38
2018-07-04T08:52:34.839Z,36.96
2018-07-04T08:55:14.311Z,36.97
2018-07-04T08:57:53.794Z,37.04
2018-07-04T09:00:33.330Z,36.82
2018-07-04T09:03:12.693Z,36.68
2018-07-04T09:05:52.210Z,37.88
2018-07-04T09:08:31.569Z,37.53
2018-07-04T09:11:11.100Z,36.74
2018-07-04T09:13:50.417Z,37.03
2018-07-04T09:16:29.858Z,36.12
2018-07-04T09:19:09.415Z,36.50
2018-07-04T09:21:49.006Z,36.59
2018-07-04T09:24:28.613Z,36.35
2018-07-04T09:27:07.898Z,34.93
2018-07-04T09:29:47.526Z,34.10
2018-07-04T09:32:27.071Z,34.88
2018-07-04T09:35:06.445Z,32.88
2018-07-04T09:37:45.801Z,33.63
2018-07-04T09:40:25.227Z,34.21
2018-07-04T09:43:04.743Z,33.19
2018-07-04T09:45:44.171Z,32.99
2018-07-04T09:48:23.838Z,33.08
2018-07-04T09:51:03.306Z,33.25
2018-07-04T09:53:42.970Z,32.99
2018-07-04T09:56:22.531Z,32.24
2018-07-04T09:59:02.386Z,32.20
2018-07-04T10:01:41.747Z,32.31
2018-07-04T10:04:21.291Z,31.20
2018-07-04T10:07:00.795Z,31.05
2018-07-04T10:09:40.493Z,31.90
2018-07-04T10:12:19.989Z,31.31
2018-07-04T10:14:59.731Z,31.13
2018-07-04T10:17:39.515Z,31.95
2018-07-04T10:20:19.128Z,32.32
2018-07-04T10:22:58.785Z,32.85
2018-07-04T10:25:38.297Z,32.69
2018-07-04T10:28:18.220Z,31.75
2018-07-04T10:30:57.628Z,31.25
2018-07-04T10:33:37.136Z,31.90
2018-07-04T10:36:16.813Z,32.58
2018-07-04T10:38:56.157Z,31.53
2018-07-04T10:41:35.494Z,32.27
2018-07-04T10:44:14.782Z,32.63
2018-07-04T10:46:54.254Z,32.45
2018-07-04T10:49:33.813Z,33.11
2018-07-04T10:52:13.596Z,33.14
2018-07-04T10:54:53.220Z,32.80
2018-07-04T10:57:32.970Z,32.75
2018-07-04T11:00:12.398Z,32.11
2018-07-04T11:02:51.831Z,31.07
2018-07-04T11:05:31.200Z,31.47
2018-07-04T11:08:10.837Z,31.67
2018-07-04T11:10:50.306Z,31.98
2018-07-04T11:13:29.777Z,30.82
2018-07-04T11:16:09.362Z,31.46
2018-07-04T11:18:48.870Z,31.62
2018-07-04T11:21:28.370Z,30.98
2018-07-04T11:24:08.145Z,30.94
2018-07-04T11:26:47.842Z,30.34
2018-07-04T11:29:27.107Z,30.08
2018-07-04T11:32:06.637Z,29.89
2018-07-04T11:34:46.090Z,29.81
2018-07-04T11:37:25.455Z,29.33
2018-07-04T11:40:04.834Z,28.08
2018-07-04T11:42:45.047Z,28.58
2018-07-04T11:45:24.647Z,28.26
2018-07-04T11:47:51.758Z,26.29
2018-07-04T11:50:18.821Z,26.39
2018-07-04T11:52:45.950Z,26.22
2018-07-04T11:55:13.062Z,25.04
2018-07-04T11:57:40.159Z,23.42
2018-07-04T12:00:07.271Z,23.92
2018-07-04T12:02:34.409Z,24.03
2018-07-04T12:05:13.897Z,22.71
2018-07-04T12:07:40.964Z,21.32
2018-07-04T12:10:08.042Z,21.29
2018-07-04T12:12:35.440Z,21.27
2018-07-04T12:15:03.005Z,20.95
2018-07-04T12:17:30.114Z,19.78
2018-07-04T12:19:57.172Z,19.27
2018-07-04T12:22:24.302Z,19.46
2018-07-04T12:24:51.408Z,19.38
2018-07-04T12:27:18.512Z,18.33
2018-07-04T12:29:45.563Z,17.36
2018-07-04T12:32:12.642Z,18.41
2018-07-04T12:34:39.850Z,17.77
2018-07-04T12:37:06.908Z,17.59
2018-07-04T12:39:33.983Z,17.44
2018-07-04T12:42:01.051Z,17.41
2018-07-04T12:44:28.434Z,18.67
2018-07-04T12:46:55.944Z,16.97
2018-07-04T12:49:27.942Z,17.75
2018-07-04T12:51:55.306Z,19.11
2018-07-04T12:54:27.777Z,20.66
2018-07-04T12:57:07.161Z,21.96
2018-07-04T12:59:46.854Z,22.02
2018-07-04T13:02:26.303Z,24.69
2018-07-04T13:05:05.906Z,24.97
2018-07-04T13:07:45.304Z,24.37
2018-07-04T13:10:24.987Z,25.76
2018-07-04T13:13:04.381Z,26.60
2018-07-04T13:15:43.928Z,27.20
2018-07-04T13:18:23.472Z,36.88
2018-07-04T13:21:02.936Z,40.42
2018-07-04T13:23:42.548Z,40.24
2018-07-04T13:26:22.044Z,40.98
2018-07-04T13:29:01.646Z,41.81
2018-07-04T13:31:41.112Z,39.43
2018-07-04T13:34:20.563Z,39.78
2018-07-04T13:36:59.982Z,37.99
2018-07-04T13:39:39.566Z,38.41
2018-07-04T13:42:19.182Z,39.41
2018-07-04T13:44:58.827Z,38.64
2018-07-04T13:47:38.203Z,38.68
2018-07-04T13:50:17.713Z,38.95
2018-07-04T13:52:57.159Z,40.40
2018-07-04T13:55:36.625Z,40.45
2018-07-04T13:58:16.143Z,39.90
2018-07-04T14:00:55.718Z,39.22
2018-07-04T14:03:35.295Z,38.65
2018-07-04T14:06:15.334Z,39.61
2018-07-04T14:08:54.893Z,40.76
2018-07-04T14:11:34.342Z,41.21
2018-07-04T14:14:13.649Z,39.02
2018-07-04T14:16:53.134Z,39.54
2018-07-04T14:19:32.572Z,39.25
2018-07-04T14:22:12.003Z,39.76
2018-07-04T14:24:51.509Z,38.80
2018-07-04T14:27:30.920Z,38.65
2018-07-04T14:30:10.524Z,38.08
2018-07-04T14:32:50.035Z,36.68
2018-07-04T14:35:29.447Z,36.79
2018-07-04T14:38:08.807Z,36.59
2018-07-04T14:40:48.311Z,36.71
2018-07-04T14:43:27.829Z,36.84
2018-07-04T14:46:07.501Z,37.09
2018-07-04T14:48:47.039Z,37.83
2018-07-04T14:51:26.555Z,37.66
2018-07-04T14:54:06.158Z,38.18
2018-07-04T14:56:45.768Z,38.33
2018-07-04T14:59:25.257Z,38.04
2018-07-04T15:02:04.725Z,36.82
2018-07-04T15:04:44.130Z,37.61
2018-07-04T15:07:23.705Z,38.78
2018-07-04T15:10:03.223Z,37.83
2018-07-04T15:12:42.615Z,37.69
2018-07-04T15:15:22.112Z,39.07
2018-07-04T15:18:01.628Z,39.50
2018-07-04T15:20:41.161Z,40.20
2018-07-04T15:23:20.350Z,40.01
2018-07-04T15:25:59.848Z,38.37
2018-07-04T15:28:39.309Z,39.20
2018-07-04T15:31:18.977Z,38.57
2018-07-04T15:33:58.485Z,38.72
2018-07-04T15:36:38.081Z,38.04
2018-07-04T15:39:18.300Z,37.57
2018-07-04T15:41:57.650Z,37.75
2018-07-04T15:44:36.946Z,36.01
2018-07-04T15:47:16.138Z,35.83
2018-07-04T15:49:55.769Z,37.01
2018-07-04T15:52:35.367Z,34.78
2018-07-04T15:55:14.816Z,33.55
2018-07-04T15:57:54.327Z,33.68
2018-07-04T16:00:33.752Z,31.33
2018-07-04T16:03:13.279Z,32.93
2018-07-04T16:05:52.862Z,35.43
2018-07-04T16:08:32.883Z,35.41
2018-07-04T16:11:12.418Z,36.09
2018-07-04T16:13:51.846Z,35.87
2018-07-04T16:16:31.145Z,36.07
2018-07-04T16:19:10.430Z,37.87
2018-07-04T16:21:50.015Z,39.95
2018-07-04T16:24:29.518Z,38.83
2018-07-04T16:27:09.091Z,39.09
2018-07-04T16:29:48.595Z,41.17
2018-07-04T16:32:28.094Z,41.06
2018-07-04T16:35:07.574Z,43.31
2018-07-04T16:37:46.843Z,42.74
2018-07-04T16:40:26.526Z,44.18
2018-07-04T16:43:05.969Z,45.64
2018-07-04T16:45:46.190Z,45.52
2018-07-04T16:48:25.779Z,45.67
2018-07-04T16:51:05.360Z,45.00
2018-07-04T16:53:44.873Z,44.18
2018-07-04T16:56:24.604Z,44.41
2018-07-04T16:59:03.988Z,41.80
2018-07-04T17:01:43.321Z,41.72
2018-07-04T17:04:22.822Z,42.67
2018-07-04T17:07:02.274Z,45.54
2018-07-04T17:09:41.685Z,44.64
2018-07-04T17:12:21.192Z,45.29
2018-07-04T17:15:00.858Z,44.55
2018-07-04T17:17:40.239Z,44.03
2018-07-04T17:20:19.643Z,46.16
2018-07-04T17:22:59.247Z,46.05
2018-07-04T17:25:38.770Z,44.71
2018-07-04T17:28:18.161Z,47.92
2018-07-04T17:30:57.562Z,44.27
2018-07-04T17:33:37.113Z,44.84
2018-07-04T17:36:16.687Z,46.35
2018-07-04T17:38:56.098Z,46.38
2018-07-04T17:41:35.562Z,45.95
2018-07-04T17:44:15.182Z,43.65
2018-07-04T17:46:54.854Z,44.64
2018-07-04T17:49:34.482Z,45.25
2018-07-04T17:52:13.993Z,46.92
2018-07-04T17:54:53.395Z,47.19
2018-07-04T17:57:32.901Z,46.32
2018-07-04T18:00:12.358Z,44.97
2018-07-04T18:02:51.957Z,46.32
2018-07-04T18:05:31.345Z,46.84
2018-07-04T18:08:10.802Z,47.50
2018-07-04T18:10:50.570Z,46.92
2018-07-04T18:13:30.244Z,47.31
2018-07-04T18:16:09.717Z,48.25
2018-07-04T18:18:49.366Z,48.48
2018-07-04T18:21:28.890Z,53.14
2018-07-04T18:24:09.075Z,54.13
2018-07-04T18:26:48.840Z,53.74
2018-07-04T18:29:28.406Z,55.79
2018-07-04T18:32:07.987Z,55.96
2018-07-04T18:34:47.494Z,54.81
2018-07-04T18:37:27.489Z,54.71
2018-07-04T18:40:06.978Z,55.77
2018-07-04T18:42:46.765Z,56.43
2018-07-04T18:45:26.230Z,55.41
2018-07-04T18:48:05.649Z,56.90
2018-07-04T18:50:45.082Z,58.39
2018-07-04T18:53:24.559Z,58.52
2018-07-04T18:56:04.037Z,58.99
2018-07-04T18:58:43.478Z,56.92
2018-07-04T19:01:22.906Z,57.87
2018-07-04T19:04:02.489Z,55.73
2018-07-04T19:06:42.021Z,57.97
2018-07-04T19:09:21.363Z,54.58
2018-07-04T19:12:00.911Z,52.56
2018-07-04T19:14:40.314Z,54.58
2018-07-04T19:17:19.771Z,58.07
2018-07-04T19:19:59.242Z,57.74
2018-07-04T19:22:38.787Z,59.85
2018-07-04T19:25:18.197Z,60.59
2018-07-04T19:27:57.771Z,60.21
2018-07-04T19:30:37.210Z,60.08
2018-07-04T19:33:16.993Z,60.37
2018-07-04T19:35:56.347Z,58.86
2018-07-04T19:38:35.812Z,60.97
2018-07-04T19:41:15.122Z,58.67
2018-07-04T19:43:54.538Z,59.40
2018-07-04T19:46:34.116Z,58.41
2018-07-04T19:49:13.523Z,57.84
2018-07-04T19:51:52.969Z,57.74
2018-07-04T19:54:32.657Z,58.80
2018-07-04T19:57:12.047Z,58.81
2018-07-04T19:59:51.515Z,58.02
2018-07-04T20:02:31.074Z,58.58
2018-07-04T20:05:10.305Z,59.50
2018-07-04T20:07:49.734Z,59.24
2018-07-04T20:10:29.156Z,58.57
2018-07-04T20:13:08.658Z,59.02
2018-07-04T20:15:48.104Z,58.44
2018-07-04T20:18:27.863Z,58.61
2018-07-04T20:21:07.474Z,57.97
2018-07-04T20:23:47.649Z,58.38
2018-07-04T20:26:27.213Z,59.92
2018-07-04T20:29:06.715Z,58.37
2018-07-04T20:31:46.184Z,60.20
2018-07-04T20:34:25.823Z,60.33
2018-07-04T20:37:05.215Z,60.10
2018-07-04T20:39:44.733Z,58.91
2018-07-04T20:42:24.434Z,59.41
2018-07-04T20:45:03.931Z,60.85
2018-07-04T20:47:43.395Z,59.90
2018-07-04T20:50:22.909Z,58.81
2018-07-04T20:53:02.294Z,59.37
2018-07-04T20:55:41.772Z,58.60
2018-07-04T20:58:21.197Z,59.30
2018-07-04T21:01:00.655Z,60.08
2018-07-04T21:03:40.127Z,59.07
2018-07-04T21:06:19.678Z,59.91
2018-07-04T21:08:59.232Z,59.84
2018-07-04T21:11:38.678Z,58.57
2018-07-04T21:14:18.226Z,59.17
2018-07-04T21:16:57.822Z,60.71
2018-07-04T21:19:37.402Z,60.90
2018-07-04T21:22:17.854Z,61.83
2018-07-04T21:24:57.457Z,62.43
2018-07-04T21:27:36.958Z,59.94
2018-07-04T21:30:16.370Z,61.04
2018-07-04T21:32:55.793Z,60.10
2018-07-04T21:35:35.261Z,62.14
2018-07-04T21:38:14.709Z,62.65
2018-07-04T21:40:54.152Z,60.94
2018-07-04T21:43:33.606Z,60.07
2018-07-04T21:46:13.198Z,59.68
2018-07-04T21:48:52.463Z,59.43
2018-07-04T21:51:32.067Z,59.25
2018-07-04T21:54:11.498Z,58.95
2018-07-04T21:56:51.330Z,59.56
2018-07-04T21:59:30.913Z,58.83
2018-07-04T22:02:10.326Z,63.15
2018-07-04T22:04:49.818Z,61.93
2018-07-04T22:07:29.333Z,62.28
2018-07-04T22:10:08.734Z,61.44
2018-07-04T22:12:48.320Z,60.37
2018-07-04T22:15:27.832Z,61.89
2018-07-04T22:18:07.399Z,61.01
2018-07-04T22:20:46.795Z,61.32
2018-07-04T22:23:26.277Z,62.08
2018-07-04T22:26:05.778Z,61.58
2018-07-04T22:28:45.685Z,60.67
2018-07-04T22:31:25.273Z,62.80
2018-07-04T22:34:04.865Z,62.39
2018-07-04T22:36:44.382Z,60.22
2018-07-04T22:39:23.807Z,60.34
2018-07-04T22:42:03.297Z,60.04
2018-07-04T22:44:42.861Z,61.08
2018-07-04T22:47:22.187Z,61.67
2018-07-04T22:50:01.767Z,61.95
2018-07-04T22:52:41.357Z,62.14
2018-07-04T22:55:21.065Z,59.99
2018-07-04T22:58:00.648Z,59.89
2018-07-04T23:00:40.143Z,59.58
2018-07-04T23:03:19.798Z,60.59
2018-07-04T23:05:59.457Z,59.93
2018-07-04T23:08:47.768Z,60.23
2018-07-04T23:11:27.279Z,60.41
2018-07-04T23:14:06.856Z,61.22
2018-07-04T23:16:46.385Z,61.22
2018-07-04T23:19:25.823Z,61.42
2018-07-04T23:22:05.358Z,60.16
2018-07-04T23:24:44.933Z,59.96
2018-07-04T23:27:24.307Z,61.36
2018-07-04T23:30:04.019Z,61.38
2018-07-04T23:32:43.401Z,61.78
2018-07-04T23:35:23.401Z,61.47
2018-07-04T23:38:02.995Z,62.50
2018-07-04T23:40:42.717Z,62.11
2018-07-04T23:43:22.241Z,63.18
2018-07-04T23:46:02.108Z,61.22
2018-07-04T23:48:41.662Z,61.38
2018-07-04T23:51:21.209Z,61.82
2018-07-04T23:54:00.614Z,62.25
2018-07-04T23:56:40.021Z,63.49
2018-07-04T23:59:19.391Z,64.10
